Time;durP1;ratioP1;P1;durP2;ratioP2;P2;SDS_P1;SDS_P2;PMS_P1;PMS_P2;Temp;Humidity;BMP_temperature;BMP_pressure;BME280_temperature;BME280_humidity;BME280_pressure;Samples;Min_cycle;Max_cycle;Signal;HPM_P1;HPM_P2
2023/11/14 00:01:21;;;;;;;15.90;3.30;;;9.40;99.90;;;;;;494094;240;28021;-73
2023/11/14 00:03:22;;;;;;;11.50;3.40;;;9.30;99.90;;;;;;494236;240;28428;-74
2023/11/14 00:05:23;;;;;;;19.57;3.50;;;9.30;99.90;;;;;;494232;239;27887;-72
2023/11/14 00:07:25;;;;;;;22.43;4.20;;;9.20;99.90;;;;;;494238;240;28043;-75
2023/11/14 00:09:26;;;;;;;8.60;3.43;;;9.20;99.90;;;;;;494088;240;28372;-73
2023/11/14 00:11:31;;;;;;;12.63;3.07;;;9.20;99.90;;;;;;494235;239;28429;-72
2023/11/14 00:13:28;;;;;;;13.80;3.73;;;9.20;99.90;;;;;;494067;240;28328;-73
2023/11/14 00:15:31;;;;;;;17.57;3.43;;;9.20;99.90;;;;;;494225;240;28022;-73
2023/11/14 00:17:31;;;;;;;11.67;3.60;;;9.20;99.90;;;;;;494173;240;27890;-73
2023/11/14 00:19:32;;;;;;;15.37;3.57;;;9.30;99.90;;;;;;494242;240;27999;-71
2023/11/14 00:21:33;;;;;;;14.20;3.93;;;9.20;99.90;;;;;;494241;239;28019;-73
2023/11/14 00:23:34;;;;;;;13.23;4.03;;;9.20;99.90;;;;;;494173;240;27979;-73
2023/11/14 00:25:36;;;;;;;8.47;2.57;;;9.10;99.90;;;;;;494041;240;27884;-73
2023/11/14 00:27:37;;;;;;;10.00;3.10;;;9.10;99.90;;;;;;494217;240;27979;-72
2023/11/14 00:29:38;;;;;;;14.87;3.37;;;9.10;99.90;;;;;;494240;239;28427;-73
2023/11/14 00:31:39;;;;;;;14.30;3.50;;;9.10;99.90;;;;;;494180;240;28153;-73
2023/11/14 00:33:41;;;;;;;14.70;3.60;;;9.10;99.90;;;;;;494159;240;27956;-73
2023/11/14 00:35:43;;;;;;;12.60;4.10;;;9.10;99.90;;;;;;494161;240;28713;-73
2023/11/14 00:37:43;;;;;;;14.83;4.30;;;9.10;99.90;;;;;;494132;240;28585;-72
2023/11/14 00:39:45;;;;;;;18.63;4.60;;;9.00;99.90;;;;;;494259;240;28490;-75
2023/11/14 00:41:47;;;;;;;15.03;3.80;;;9.00;99.90;;;;;;494195;237;27758;-74
2023/11/14 00:43:47;;;;;;;15.73;3.70;;;9.10;99.90;;;;;;494142;240;27791;-73
2023/11/14 00:45:48;;;;;;;17.00;3.80;;;9.10;99.90;;;;;;494094;240;27977;-72
2023/11/14 00:47:49;;;;;;;17.43;3.47;;;9.00;99.90;;;;;;494111;238;28034;-72
2023/11/14 00:49:51;;;;;;;16.33;4.00;;;9.00;99.90;;;;;;494182;240;27983;-74
2023/11/14 00:51:52;;;;;;;16.80;3.50;;;9.00;99.90;;;;;;494048;240;27593;-72
2023/11/14 00:53:56;;;;;;;11.07;3.10;;;9.00;99.90;;;;;;494245;240;28122;-72
2023/11/14 00:55:55;;;;;;;18.30;3.57;;;8.90;99.90;;;;;;494171;240;27862;-75
2023/11/14 00:57:56;;;;;;;11.53;3.83;;;8.90;99.90;;;;;;494213;240;27946;-72
2023/11/14 00:59:58;;;;;;;17.50;5.57;;;8.80;99.90;;;;;;494144;240;28310;-73
2023/11/14 01:01:58;;;;;;;13.20;5.30;;;8.80;99.90;;;;;;494144;239;28342;-72
2023/11/14 01:03:59;;;;;;;16.43;4.43;;;8.80;99.90;;;;;;494126;240;28563;-72
2023/11/14 01:06:01;;;;;;;17.03;3.70;;;8.70;99.90;;;;;;494192;240;28075;-74
2023/11/14 01:08:02;;;;;;;21.90;4.43;;;8.80;99.90;;;;;;494256;240;27692;-73
2023/11/14 01:10:03;;;;;;;19.87;4.20;;;8.70;99.90;;;;;;494256;239;27978;-73
2023/11/14 01:12:04;;;;;;;17.50;3.80;;;8.70;99.90;;;;;;494156;240;27698;-73
2023/11/14 01:14:06;;;;;;;18.37;3.27;;;8.70;99.90;;;;;;494246;240;27961;-72
2023/11/14 01:16:08;;;;;;;18.37;3.77;;;8.70;99.90;;;;;;494258;240;27770;-73
2023/11/14 01:18:08;;;;;;;22.53;3.90;;;8.70;99.90;;;;;;494249;240;27743;-72
2023/11/14 01:20:10;;;;;;;13.40;3.50;;;8.70;99.90;;;;;;494242;240;28121;-73
2023/11/14 01:22:11;;;;;;;21.60;2.90;;;8.70;99.90;;;;;;494164;240;28071;-74
2023/11/14 01:24:12;;;;;;;19.03;3.53;;;8.70;99.90;;;;;;494196;240;28290;-72
2023/11/14 01:26:13;;;;;;;15.67;3.27;;;8.70;99.90;;;;;;494188;240;28463;-73
2023/11/14 01:28:14;;;;;;;17.27;3.27;;;8.70;99.90;;;;;;494168;240;28492;-73
2023/11/14 01:30:16;;;;;;;12.73;3.07;;;8.70;99.90;;;;;;494171;239;28482;-72
2023/11/14 01:32:17;;;;;;;15.40;3.20;;;8.70;99.90;;;;;;494267;238;27750;-73
2023/11/14 01:34:18;;;;;;;19.17;3.77;;;8.60;99.90;;;;;;494268;239;27484;-73
2023/11/14 01:36:20;;;;;;;11.20;3.17;;;8.60;99.90;;;;;;494259;240;27605;-73
2023/11/14 01:38:21;;;;;;;19.53;4.03;;;8.70;99.90;;;;;;494256;239;27943;-72
2023/11/14 01:40:24;;;;;;;17.73;4.07;;;8.60;99.90;;;;;;494235;240;27989;-73
2023/11/14 01:42:23;;;;;;;16.00;4.10;;;8.60;99.90;;;;;;494064;240;27977;-73
2023/11/14 01:44:25;;;;;;;12.17;4.00;;;8.50;99.90;;;;;;494135;240;27828;-73
2023/11/14 01:46:26;;;;;;;16.37;3.50;;;8.60;99.90;;;;;;494161;240;27968;-73
2023/11/14 01:48:27;;;;;;;11.90;3.23;;;8.60;99.90;;;;;;494203;240;28545;-72
2023/11/14 01:50:28;;;;;;;13.43;3.80;;;8.60;99.90;;;;;;494171;240;28369;-72
2023/11/14 01:52:29;;;;;;;28.07;4.80;;;8.60;99.90;;;;;;494191;240;28460;-73
2023/11/14 01:54:31;;;;;;;14.00;3.73;;;8.50;99.90;;;;;;494241;240;28358;-72
2023/11/14 01:56:33;;;;;;;23.57;3.70;;;8.60;99.90;;;;;;494236;240;27982;-72
2023/11/14 01:58:33;;;;;;;24.20;3.67;;;8.50;99.90;;;;;;494201;240;27861;-72
2023/11/14 02:00:34;;;;;;;13.57;3.43;;;8.60;99.90;;;;;;494235;239;27803;-73
2023/11/14 02:02:36;;;;;;;17.13;3.47;;;8.60;99.90;;;;;;494231;240;27854;-73
2023/11/14 02:04:37;;;;;;;13.83;3.57;;;8.60;99.90;;;;;;494231;240;27948;-72
2023/11/14 02:06:38;;;;;;;22.33;4.50;;;8.60;99.90;;;;;;494248;240;27973;-72
2023/11/14 02:08:39;;;;;;;15.40;4.40;;;8.60;99.90;;;;;;494257;240;28067;-73
2023/11/14 02:10:41;;;;;;;15.33;4.00;;;8.50;99.90;;;;;;494263;240;27861;-73
2023/11/14 02:12:42;;;;;;;11.50;3.20;;;8.60;99.90;;;;;;494148;240;27708;-73
2023/11/14 02:14:43;;;;;;;14.67;4.03;;;8.60;99.90;;;;;;494253;240;28031;-72
2023/11/14 02:16:45;;;;;;;14.30;3.57;;;8.60;99.90;;;;;;494218;240;28269;-72
2023/11/14 02:18:46;;;;;;;17.10;4.20;;;8.60;99.90;;;;;;494224;240;28463;-73
2023/11/14 02:20:47;;;;;;;18.60;4.20;;;8.60;99.90;;;;;;494233;240;28025;-73
2023/11/14 02:22:49;;;;;;;16.87;4.40;;;8.60;99.90;;;;;;494233;240;27990;-72
2023/11/14 02:24:51;;;;;;;16.30;4.20;;;8.50;99.90;;;;;;494215;240;27939;-72
2023/11/14 02:26:51;;;;;;;12.03;3.17;;;8.50;99.90;;;;;;494203;240;27948;-72
2023/11/14 02:28:52;;;;;;;21.27;3.93;;;8.50;99.90;;;;;;494165;240;27837;-71
2023/11/14 02:30:53;;;;;;;11.20;3.07;;;8.50;99.90;;;;;;494153;240;27971;-73
2023/11/14 02:32:54;;;;;;;19.93;3.97;;;8.50;99.90;;;;;;494250;240;27742;-72
2023/11/14 02:34:56;;;;;;;12.63;3.30;;;8.50;99.90;;;;;;494216;239;28358;-74
2023/11/14 02:36:57;;;;;;;8.33;2.90;;;8.60;99.90;;;;;;494150;240;27815;-72
2023/11/14 02:38:58;;;;;;;13.60;3.30;;;8.50;99.90;;;;;;494145;240;27503;-73
2023/11/14 02:40:59;;;;;;;18.77;3.10;;;8.50;99.90;;;;;;494247;238;28343;-73
2023/11/14 02:43:01;;;;;;;22.30;3.53;;;8.50;99.90;;;;;;494220;239;28548;-73
2023/11/14 02:45:03;;;;;;;20.53;3.80;;;8.50;99.90;;;;;;494148;239;28408;-74
2023/11/14 02:47:03;;;;;;;24.97;3.77;;;8.50;99.90;;;;;;494168;240;27965;-72
2023/11/14 02:49:04;;;;;;;20.17;4.43;;;8.50;99.90;;;;;;494133;239;27827;-73
2023/11/14 02:51:06;;;;;;;11.37;3.27;;;8.60;99.90;;;;;;494249;240;27800;-72
2023/11/14 02:53:08;;;;;;;14.13;3.60;;;8.50;99.90;;;;;;494236;239;27563;-73
2023/11/14 02:55:08;;;;;;;25.43;6.07;;;8.60;99.90;;;;;;494107;240;27869;-74
2023/11/14 02:57:12;;;;;;;14.63;4.07;;;8.60;99.90;;;;;;494221;240;27842;-72
2023/11/14 02:59:11;;;;;;;8.90;3.80;;;8.50;99.90;;;;;;494089;240;27756;-72
2023/11/14 03:01:12;;;;;;;15.23;3.67;;;8.50;99.90;;;;;;494184;240;27794;-75
2023/11/14 03:03:13;;;;;;;17.33;3.17;;;8.50;99.90;;;;;;494176;240;28142;-72
2023/11/14 03:05:15;;;;;;;19.67;4.23;;;8.50;99.90;;;;;;494170;240;28184;-72
2023/11/14 03:07:16;;;;;;;15.00;3.70;;;8.60;99.90;;;;;;494184;240;28271;-72
2023/11/14 03:09:17;;;;;;;22.47;3.27;;;8.60;99.90;;;;;;494158;240;28472;-72
2023/11/14 03:11:18;;;;;;;15.77;3.67;;;8.60;99.90;;;;;;494180;240;28618;-73
2023/11/14 03:13:19;;;;;;;14.47;3.87;;;8.70;99.90;;;;;;494236;240;27748;-73
2023/11/14 03:15:21;;;;;;;20.73;3.03;;;8.70;99.90;;;;;;494237;240;28169;-74
2023/11/14 03:17:22;;;;;;;13.80;2.80;;;8.70;99.90;;;;;;494219;240;27901;-73
2023/11/14 03:19:23;;;;;;;19.60;3.77;;;8.80;99.90;;;;;;494233;239;27856;-72
2023/11/14 03:21:24;;;;;;;10.90;2.60;;;8.80;99.90;;;;;;494279;239;28101;-74
2023/11/14 03:23:26;;;;;;;16.50;3.20;;;8.90;99.90;;;;;;494253;240;28080;-73
2023/11/14 03:25:27;;;;;;;9.67;3.00;;;8.90;99.90;;;;;;494110;240;28173;-73
2023/11/14 03:27:28;;;;;;;9.60;2.83;;;8.90;99.90;;;;;;494210;240;28117;-73
2023/11/14 03:29:29;;;;;;;15.70;2.97;;;8.90;99.90;;;;;;494234;240;28004;-73
2023/11/14 03:31:31;;;;;;;21.87;3.70;;;8.90;99.90;;;;;;494270;240;28576;-73
2023/11/14 03:33:32;;;;;;;15.90;3.43;;;9.00;99.90;;;;;;494233;240;28498;-73
2023/11/14 03:35:33;;;;;;;13.47;3.60;;;9.00;99.90;;;;;;494171;240;28525;-73
2023/11/14 03:37:34;;;;;;;9.10;3.00;;;9.10;99.90;;;;;;494138;240;29206;-72
2023/11/14 03:39:36;;;;;;;12.30;3.33;;;9.10;99.90;;;;;;494190;240;27899;-72
2023/11/14 03:41:37;;;;;;;11.73;3.40;;;9.10;99.90;;;;;;494157;239;28038;-73
2023/11/14 03:43:38;;;;;;;12.07;3.23;;;9.10;99.90;;;;;;494197;240;27578;-72
2023/11/14 03:45:40;;;;;;;19.83;3.90;;;9.10;99.90;;;;;;494236;240;28024;-73
2023/11/14 03:47:42;;;;;;;10.43;3.07;;;9.20;99.90;;;;;;494235;240;28201;-74
2023/11/14 03:49:42;;;;;;;18.23;3.30;;;9.20;99.90;;;;;;494216;240;27913;-73
2023/11/14 03:51:43;;;;;;;20.80;3.80;;;9.20;99.90;;;;;;494247;240;27741;-73
2023/11/14 03:53:45;;;;;;;14.40;3.27;;;9.20;99.90;;;;;;494292;240;27932;-73
2023/11/14 03:55:46;;;;;;;19.80;3.43;;;9.20;99.90;;;;;;494254;240;27944;-73
2023/11/14 03:57:47;;;;;;;15.60;3.27;;;9.30;99.90;;;;;;494275;240;27532;-74
2023/11/14 03:59:48;;;;;;;15.47;3.60;;;9.20;99.90;;;;;;494261;240;27893;-72
2023/11/14 04:01:50;;;;;;;9.10;2.80;;;9.30;99.90;;;;;;494264;240;27986;-72
2023/11/14 04:03:51;;;;;;;13.60;3.10;;;9.30;99.90;;;;;;494131;240;27998;-72
2023/11/14 04:05:52;;;;;;;17.17;3.90;;;9.30;99.90;;;;;;494181;240;27941;-73
2023/11/14 04:07:53;;;;;;;18.30;3.30;;;9.30;99.90;;;;;;494221;239;28089;-73
2023/11/14 04:09:55;;;;;;;17.27;3.17;;;9.30;99.90;;;;;;494166;240;27902;-73
2023/11/14 04:11:56;;;;;;;20.23;3.80;;;9.40;99.90;;;;;;494173;240;27736;-73
2023/11/14 04:13:57;;;;;;;9.37;3.00;;;9.40;99.90;;;;;;494191;240;28531;-74
2023/11/14 04:15:58;;;;;;;15.43;3.23;;;9.30;99.90;;;;;;494247;240;28404;-73
2023/11/14 04:18:00;;;;;;;11.57;3.10;;;9.40;99.90;;;;;;494254;240;28543;-73
2023/11/14 04:20:01;;;;;;;6.33;2.87;;;9.40;99.90;;;;;;494205;240;28008;-73
2023/11/14 04:22:02;;;;;;;12.83;3.20;;;9.40;99.90;;;;;;494216;240;27497;-73
2023/11/14 04:24:03;;;;;;;11.80;3.00;;;9.40;99.90;;;;;;494227;240;27847;-74
2023/11/14 04:26:05;;;;;;;30.77;5.07;;;9.40;99.90;;;;;;494192;240;27909;-72
2023/11/14 04:28:06;;;;;;;16.60;3.70;;;9.40;99.90;;;;;;494144;240;28074;-72
2023/11/14 04:30:08;;;;;;;11.93;2.90;;;9.50;99.90;;;;;;494105;240;28043;-72
2023/11/14 04:32:08;;;;;;;13.50;3.60;;;9.40;99.90;;;;;;494129;240;27845;-72
2023/11/14 04:34:10;;;;;;;12.03;3.40;;;9.40;99.90;;;;;;494198;240;27909;-73
2023/11/14 04:36:11;;;;;;;13.93;3.83;;;9.50;99.90;;;;;;494183;240;28008;-73
2023/11/14 04:38:12;;;;;;;14.93;3.43;;;9.50;99.90;;;;;;494149;240;27943;-73
2023/11/14 04:40:13;;;;;;;14.57;3.43;;;9.50;99.90;;;;;;494139;240;29341;-72
2023/11/14 04:42:15;;;;;;;12.63;3.00;;;9.40;99.90;;;;;;494159;240;28496;-72
2023/11/14 04:44:16;;;;;;;10.80;3.30;;;9.50;99.90;;;;;;494149;240;28244;-74
2023/11/14 04:46:17;;;;;;;17.70;2.90;;;9.50;99.90;;;;;;494217;237;28051;-72
2023/11/14 04:48:19;;;;;;;26.03;4.43;;;9.50;99.90;;;;;;494165;238;28121;-73
2023/11/14 04:50:22;;;;;;;22.37;3.43;;;9.50;99.90;;;;;;494242;239;27605;-73
2023/11/14 04:52:21;;;;;;;12.73;3.03;;;9.50;99.90;;;;;;494190;240;27866;-72
2023/11/14 04:54:22;;;;;;;17.37;3.40;;;9.60;99.90;;;;;;494243;240;28123;-73
2023/11/14 04:56:23;;;;;;;14.70;3.67;;;9.60;99.90;;;;;;494156;239;27971;-72
2023/11/14 04:58:25;;;;;;;13.87;3.30;;;9.50;99.90;;;;;;494223;240;27739;-73
2023/11/14 05:00:26;;;;;;;13.63;3.10;;;9.50;99.90;;;;;;494246;240;28042;-75
2023/11/14 05:02:28;;;;;;;17.50;3.70;;;9.50;99.90;;;;;;494236;240;27818;-72
2023/11/14 05:04:29;;;;;;;12.87;2.80;;;9.50;99.90;;;;;;494237;240;28488;-73
2023/11/14 05:06:30;;;;;;;13.23;3.60;;;9.60;99.90;;;;;;494256;238;28501;-72
2023/11/14 05:08:31;;;;;;;21.10;3.87;;;9.60;99.90;;;;;;494124;240;28353;-73
2023/11/14 05:10:32;;;;;;;18.47;4.83;;;9.60;99.90;;;;;;494217;240;28094;-74
2023/11/14 05:12:33;;;;;;;13.90;3.30;;;9.60;99.90;;;;;;494221;240;28104;-73
2023/11/14 05:14:35;;;;;;;9.93;2.93;;;9.50;99.90;;;;;;494229;240;28053;-73
2023/11/14 05:16:36;;;;;;;18.03;3.60;;;9.60;99.90;;;;;;494161;240;27942;-73
2023/11/14 05:18:37;;;;;;;13.37;3.27;;;9.60;99.90;;;;;;494158;240;27927;-73
2023/11/14 05:20:39;;;;;;;11.70;3.43;;;9.60;99.90;;;;;;494185;240;28089;-74
2023/11/14 05:22:40;;;;;;;20.47;3.23;;;9.60;99.90;;;;;;494142;240;28039;-73
2023/11/14 05:24:41;;;;;;;10.37;3.00;;;9.60;99.90;;;;;;494087;240;27544;-73
2023/11/14 05:26:42;;;;;;;16.00;3.30;;;9.60;99.90;;;;;;494168;240;28115;-73
2023/11/14 05:28:43;;;;;;;18.43;4.60;;;9.60;99.90;;;;;;494160;240;28063;-72
2023/11/14 05:30:45;;;;;;;12.80;3.30;;;9.60;99.90;;;;;;494162;240;28473;-73
2023/11/14 05:32:48;;;;;;;11.43;3.00;;;9.60;99.90;;;;;;494162;239;28358;-72
2023/11/14 05:34:47;;;;;;;19.63;3.80;;;9.60;99.90;;;;;;494188;240;28559;-73
2023/11/14 05:36:48;;;;;;;14.43;3.40;;;9.60;99.90;;;;;;494236;240;27976;-73
2023/11/14 05:38:50;;;;;;;13.57;2.50;;;9.60;99.90;;;;;;494222;240;27594;-76
2023/11/14 05:40:51;;;;;;;19.57;3.83;;;9.60;99.90;;;;;;494247;240;28123;-73
2023/11/14 05:42:53;;;;;;;18.07;3.67;;;9.70;99.90;;;;;;494200;239;27908;-72
2023/11/14 05:44:53;;;;;;;13.60;3.13;;;9.70;99.90;;;;;;494160;240;27981;-73
2023/11/14 05:46:55;;;;;;;16.73;3.20;;;9.70;99.90;;;;;;494125;239;27889;-73
2023/11/14 05:48:56;;;;;;;21.80;3.60;;;9.70;99.90;;;;;;494196;239;27957;-73
2023/11/14 05:50:57;;;;;;;14.13;3.30;;;9.70;99.90;;;;;;494202;239;27607;-74
2023/11/14 05:52:58;;;;;;;7.77;2.67;;;9.70;99.90;;;;;;494222;240;27930;-74
2023/11/14 05:55:00;;;;;;;14.73;3.70;;;9.70;99.90;;;;;;494236;239;28294;-72
2023/11/14 05:57:01;;;;;;;11.07;3.00;;;9.70;99.90;;;;;;494198;240;28585;-73
2023/11/14 05:59:03;;;;;;;9.37;2.93;;;9.70;99.90;;;;;;494238;239;28035;-73
2023/11/14 06:01:03;;;;;;;14.50;3.97;;;9.70;99.90;;;;;;494172;240;28673;-73
2023/11/14 06:03:05;;;;;;;11.63;3.03;;;9.70;99.90;;;;;;494203;240;27952;-74
2023/11/14 06:05:06;;;;;;;18.13;3.50;;;9.70;99.90;;;;;;494251;240;28045;-72
2023/11/14 06:07:07;;;;;;;13.70;4.53;;;9.70;99.90;;;;;;494186;240;27758;-73
2023/11/14 06:09:09;;;;;;;20.67;3.30;;;9.70;99.90;;;;;;494168;240;27770;-73
2023/11/14 06:11:10;;;;;;;8.23;2.90;;;9.70;99.90;;;;;;494202;240;27790;-74
2023/11/14 06:13:11;;;;;;;19.27;3.40;;;9.70;99.90;;;;;;494217;240;27877;-74
2023/11/14 06:15:13;;;;;;;7.50;3.30;;;9.70;99.90;;;;;;494220;240;28027;-72
2023/11/14 06:17:14;;;;;;;14.60;3.20;;;9.70;99.90;;;;;;494144;238;28052;-73
2023/11/14 06:19:15;;;;;;;16.77;3.00;;;9.80;99.90;;;;;;494149;240;27927;-73
2023/11/14 06:21:16;;;;;;;10.77;2.87;;;9.70;99.90;;;;;;494102;240;28095;-72
2023/11/14 06:23:19;;;;;;;15.33;3.30;;;9.70;99.90;;;;;;494164;240;28514;-73
2023/11/14 06:25:18;;;;;;;18.53;3.43;;;9.80;99.90;;;;;;494101;240;28357;-73
2023/11/14 06:27:20;;;;;;;9.20;3.00;;;9.80;99.90;;;;;;494155;240;28429;-72
2023/11/14 06:29:21;;;;;;;16.80;3.67;;;9.80;99.90;;;;;;494277;240;27957;-73
2023/11/14 06:31:22;;;;;;;13.33;2.83;;;9.80;99.90;;;;;;494253;240;27945;-73
2023/11/14 06:33:23;;;;;;;10.80;2.87;;;9.80;99.90;;;;;;494252;240;27964;-74
2023/11/14 06:35:25;;;;;;;18.27;3.50;;;9.70;99.90;;;;;;494265;240;27973;-73
2023/11/14 06:37:26;;;;;;;13.63;3.67;;;9.80;99.90;;;;;;494241;240;27746;-73
2023/11/14 06:39:27;;;;;;;11.23;2.90;;;9.80;99.90;;;;;;494210;240;28017;-75
2023/11/14 06:41:28;;;;;;;11.53;3.23;;;9.80;99.90;;;;;;494212;240;27952;-73
2023/11/14 06:43:30;;;;;;;14.80;3.13;;;9.70;99.90;;;;;;494221;240;27993;-73
2023/11/14 06:45:31;;;;;;;16.73;3.20;;;9.80;99.90;;;;;;494196;240;27972;-73
2023/11/14 06:47:32;;;;;;;13.77;2.97;;;9.80;99.90;;;;;;494191;237;28390;-73
2023/11/14 06:49:33;;;;;;;13.30;3.63;;;9.80;99.90;;;;;;494196;239;28563;-74
2023/11/14 06:51:35;;;;;;;9.07;2.57;;;9.80;99.90;;;;;;494192;240;28508;-73
2023/11/14 06:53:36;;;;;;;9.47;3.10;;;9.80;99.90;;;;;;494169;240;28517;-73
2023/11/14 06:55:37;;;;;;;12.30;3.50;;;9.80;99.90;;;;;;494207;240;28072;-72
2023/11/14 06:57:40;;;;;;;13.33;3.37;;;9.80;99.90;;;;;;494184;239;27935;-73
2023/11/14 06:59:40;;;;;;;10.10;3.10;;;9.80;99.90;;;;;;494183;240;27984;-74
2023/11/14 07:01:41;;;;;;;7.87;2.93;;;9.80;99.90;;;;;;494178;240;28106;-72
2023/11/14 07:03:43;;;;;;;11.80;3.60;;;9.80;99.90;;;;;;494202;239;27980;-73
2023/11/14 07:05:43;;;;;;;18.77;3.43;;;9.80;99.90;;;;;;494200;240;28118;-73
2023/11/14 07:07:45;;;;;;;14.43;3.17;;;9.80;99.90;;;;;;494162;240;27963;-72
2023/11/14 07:09:46;;;;;;;14.50;3.13;;;9.80;99.90;;;;;;494187;240;27869;-73
2023/11/14 07:11:47;;;;;;;10.30;3.53;;;9.80;99.90;;;;;;494155;240;27586;-72
2023/11/14 07:13:48;;;;;;;13.43;2.67;;;9.80;99.90;;;;;;494144;240;27951;-72
2023/11/14 07:15:50;;;;;;;18.87;5.43;;;9.80;99.90;;;;;;494143;240;28455;-73
2023/11/14 07:17:51;;;;;;;14.97;3.70;;;9.80;99.90;;;;;;494087;239;27971;-73
2023/11/14 07:19:54;;;;;;;7.63;2.80;;;9.80;99.90;;;;;;494064;240;27987;-73
2023/11/14 07:21:55;;;;;;;8.97;2.70;;;9.80;99.90;;;;;;494085;240;28017;-73
2023/11/14 07:23:55;;;;;;;13.73;2.90;;;9.80;99.90;;;;;;494102;240;28027;-73
2023/11/14 07:25:56;;;;;;;8.93;3.10;;;9.80;99.90;;;;;;494142;240;27856;-73
2023/11/14 07:27:57;;;;;;;16.53;3.33;;;9.80;99.90;;;;;;494120;240;27605;-73
2023/11/14 07:29:58;;;;;;;14.70;3.20;;;9.80;99.90;;;;;;494134;240;28035;-73
2023/11/14 07:32:00;;;;;;;13.70;2.90;;;9.80;99.90;;;;;;494121;240;28554;-74
2023/11/14 07:34:01;;;;;;;11.90;3.20;;;9.80;99.90;;;;;;494174;240;28373;-73
2023/11/14 07:36:02;;;;;;;11.13;3.10;;;9.80;99.90;;;;;;494229;240;28445;-73
2023/11/14 07:38:04;;;;;;;7.20;2.43;;;9.80;99.90;;;;;;494005;240;28417;-73
2023/11/14 07:40:06;;;;;;;9.40;2.47;;;9.80;99.90;;;;;;494162;240;27871;-73
2023/11/14 07:42:06;;;;;;;8.40;2.63;;;9.80;99.90;;;;;;494202;240;28001;-72
2023/11/14 07:44:09;;;;;;;15.07;3.77;;;9.80;99.90;;;;;;494166;240;28018;-73
2023/11/14 07:46:09;;;;;;;14.30;3.30;;;9.80;99.90;;;;;;494135;240;27858;-73
2023/11/14 07:48:10;;;;;;;9.93;2.80;;;9.80;99.90;;;;;;494162;239;28097;-73
2023/11/14 07:50:11;;;;;;;16.50;3.37;;;9.80;99.90;;;;;;494161;240;28376;-73
2023/11/14 07:52:12;;;;;;;6.60;2.97;;;9.80;99.90;;;;;;494175;240;28118;-73
2023/11/14 07:54:14;;;;;;;10.43;2.93;;;9.80;99.90;;;;;;494175;240;27786;-72
2023/11/14 07:56:15;;;;;;;17.60;3.57;;;9.80;99.90;;;;;;494166;240;28017;-72
2023/11/14 07:58:16;;;;;;;8.17;2.87;;;9.80;99.90;;;;;;494159;240;27943;-72
2023/11/14 08:00:18;;;;;;;11.03;2.90;;;9.80;99.90;;;;;;494185;239;27706;-73
2023/11/14 08:02:19;;;;;;;15.80;3.07;;;9.80;99.90;;;;;;494125;240;28052;-73
2023/11/14 08:04:20;;;;;;;8.53;2.43;;;9.80;99.90;;;;;;494166;240;28518;-73
2023/11/14 08:06:21;;;;;;;10.43;2.67;;;9.80;99.90;;;;;;494188;240;28248;-74
2023/11/14 08:08:22;;;;;;;14.03;3.10;;;9.70;99.90;;;;;;494158;238;28628;-73
2023/11/14 08:10:24;;;;;;;12.10;3.10;;;9.70;99.90;;;;;;494221;240;27918;-73
2023/11/14 08:12:25;;;;;;;12.63;2.80;;;9.70;99.90;;;;;;494221;240;27849;-72
2023/11/14 08:14:26;;;;;;;11.83;2.43;;;9.80;99.90;;;;;;494231;240;28017;-73
2023/11/14 08:16:27;;;;;;;9.40;2.47;;;9.80;99.90;;;;;;494228;240;28119;-73
2023/11/14 08:18:29;;;;;;;14.70;2.93;;;9.80;99.90;;;;;;494186;240;27887;-73
2023/11/14 08:20:30;;;;;;;11.43;2.70;;;9.80;99.90;;;;;;494162;240;28037;-73
2023/11/14 08:22:31;;;;;;;19.30;3.40;;;9.80;99.90;;;;;;494235;240;27992;-73
2023/11/14 08:24:33;;;;;;;14.43;3.27;;;9.90;99.90;;;;;;494236;240;28065;-72
2023/11/14 08:26:34;;;;;;;11.60;3.23;;;9.80;99.90;;;;;;494189;240;27976;-73
2023/11/14 08:28:35;;;;;;;11.47;3.77;;;9.80;99.90;;;;;;494176;240;28555;-73
2023/11/14 08:30:36;;;;;;;15.40;2.40;;;9.80;99.90;;;;;;494247;240;28017;-73
2023/11/14 08:32:38;;;;;;;10.53;3.17;;;9.80;99.90;;;;;;494256;240;28110;-73
2023/11/14 08:34:39;;;;;;;13.90;3.20;;;9.80;99.90;;;;;;494145;240;28577;-72
2023/11/14 08:36:40;;;;;;;13.13;3.50;;;9.90;99.90;;;;;;494194;240;27808;-73
2023/11/14 08:38:41;;;;;;;16.73;4.00;;;9.80;99.90;;;;;;494156;239;27860;-73
2023/11/14 08:40:42;;;;;;;8.90;2.83;;;9.80;99.90;;;;;;494175;240;28040;-73
2023/11/14 08:42:46;;;;;;;12.67;3.93;;;9.80;99.90;;;;;;494231;239;27852;-73
2023/11/14 08:44:45;;;;;;;9.30;3.13;;;9.90;99.90;;;;;;494086;240;28318;-73
2023/11/14 08:46:47;;;;;;;13.47;3.27;;;9.90;99.90;;;;;;494212;239;27946;-72
2023/11/14 08:48:47;;;;;;;10.47;2.87;;;9.90;99.90;;;;;;494187;240;28089;-73
2023/11/14 08:50:49;;;;;;;10.60;2.50;;;9.90;99.90;;;;;;494251;240;27693;-73
2023/11/14 08:52:50;;;;;;;13.43;3.53;;;9.90;99.90;;;;;;494144;240;27938;-73
2023/11/14 08:54:52;;;;;;;10.37;3.47;;;9.90;99.90;;;;;;494249;240;28345;-73
2023/11/14 08:56:52;;;;;;;8.17;3.23;;;9.90;99.90;;;;;;494131;240;28406;-72
2023/11/14 08:58:54;;;;;;;9.97;3.13;;;9.90;99.90;;;;;;494132;240;28466;-73
2023/11/14 09:00:57;;;;;;;16.83;2.93;;;9.90;99.90;;;;;;494137;240;27981;-73
2023/11/14 09:02:56;;;;;;;10.50;2.93;;;9.90;99.90;;;;;;494054;240;27616;-73
2023/11/14 09:04:57;;;;;;;9.63;2.53;;;9.90;99.90;;;;;;494060;240;27673;-72
2023/11/14 09:06:59;;;;;;;9.57;2.50;;;10.00;99.90;;;;;;494157;240;27597;-72
2023/11/14 09:09:00;;;;;;;8.80;3.07;;;10.00;99.90;;;;;;494193;239;27878;-73
2023/11/14 09:11:01;;;;;;;8.77;2.53;;;10.00;99.90;;;;;;494247;239;28089;-72
2023/11/14 09:13:02;;;;;;;14.73;3.43;;;10.00;99.90;;;;;;494259;240;27987;-73
2023/11/14 09:15:08;;;;;;;8.10;2.53;;;10.00;99.90;;;;;;494234;239;27970;-73
2023/11/14 09:17:05;;;;;;;6.50;2.27;;;10.00;99.90;;;;;;494068;240;28014;-73
2023/11/14 09:19:06;;;;;;;9.43;3.67;;;10.00;99.90;;;;;;494184;240;27760;-73
2023/11/14 09:21:07;;;;;;;9.93;3.00;;;10.10;99.90;;;;;;494226;240;28416;-74
2023/11/14 09:23:09;;;;;;;14.43;3.33;;;10.10;99.90;;;;;;494229;240;27958;-73
2023/11/14 09:25:10;;;;;;;10.80;3.07;;;10.10;99.90;;;;;;494146;239;28358;-72
2023/11/14 09:27:11;;;;;;;8.23;3.27;;;10.10;99.90;;;;;;494146;239;27828;-72
2023/11/14 09:29:12;;;;;;;14.30;4.00;;;10.10;99.90;;;;;;494165;240;27979;-73
2023/11/14 09:31:14;;;;;;;12.90;3.40;;;10.10;99.90;;;;;;494097;240;27867;-73
2023/11/14 09:33:15;;;;;;;6.43;2.70;;;10.20;99.90;;;;;;494217;240;27941;-72
2023/11/14 09:35:16;;;;;;;12.33;2.97;;;10.20;99.90;;;;;;494245;240;27867;-73
2023/11/14 09:37:18;;;;;;;11.93;2.70;;;10.20;99.90;;;;;;494244;239;27965;-73
2023/11/14 09:39:20;;;;;;;11.00;2.87;;;10.20;99.90;;;;;;494172;240;27582;-73
2023/11/14 09:41:20;;;;;;;8.30;2.83;;;10.20;99.90;;;;;;494152;240;28441;-74
2023/11/14 09:43:22;;;;;;;10.23;3.17;;;10.20;99.90;;;;;;494171;240;28446;-73
2023/11/14 09:45:24;;;;;;;14.37;2.90;;;10.20;99.90;;;;;;494160;240;28681;-73
2023/11/14 09:47:24;;;;;;;7.93;2.40;;;10.30;99.90;;;;;;494191;238;28097;-73
2023/11/14 09:49:26;;;;;;;19.90;2.87;;;10.30;99.90;;;;;;494159;240;27946;-73
2023/11/14 09:51:26;;;;;;;8.53;2.60;;;10.30;99.90;;;;;;494159;240;27745;-72
2023/11/14 09:53:28;;;;;;;9.93;2.33;;;10.30;99.90;;;;;;494161;238;28028;-73
2023/11/14 09:55:29;;;;;;;13.90;3.00;;;10.40;99.90;;;;;;494177;239;27795;-73
2023/11/14 09:57:30;;;;;;;5.77;2.43;;;10.40;99.90;;;;;;494177;240;28127;-73
2023/11/14 09:59:31;;;;;;;13.13;2.93;;;10.40;99.90;;;;;;494196;240;27941;-73
2023/11/14 10:01:32;;;;;;;13.60;3.17;;;10.40;99.90;;;;;;494182;240;28468;-73
2023/11/14 10:03:34;;;;;;;9.13;3.03;;;10.40;99.90;;;;;;494179;240;29053;-73
2023/11/14 10:05:35;;;;;;;9.23;2.47;;;10.40;99.90;;;;;;494199;240;28501;-73
2023/11/14 10:07:36;;;;;;;11.10;2.83;;;10.40;99.90;;;;;;494180;240;28025;-73
2023/11/14 10:09:40;;;;;;;6.87;2.60;;;10.40;99.90;;;;;;494186;239;27952;-73
2023/11/14 10:11:42;;;;;;;10.23;3.27;;;10.40;99.90;;;;;;494178;240;28355;-73
2023/11/14 10:13:44;;;;;;;9.40;3.00;;;10.40;99.90;;;;;;494156;240;28072;-73
2023/11/14 10:15:44;;;;;;;12.23;3.33;;;10.40;99.90;;;;;;494189;240;28476;-73
2023/11/14 10:17:49;;;;;;;9.97;2.40;;;10.50;99.90;;;;;;494180;239;28418;-73
2023/11/14 10:19:50;;;;;;;12.63;2.43;;;10.50;99.90;;;;;;494207;240;27960;-73
2023/11/14 10:21:51;;;;;;;9.30;2.53;;;10.50;99.90;;;;;;494209;240;27725;-73
2023/11/14 10:23:52;;;;;;;9.60;2.60;;;10.50;99.90;;;;;;494188;239;27813;-74
2023/11/14 10:25:54;;;;;;;12.00;3.60;;;10.50;99.90;;;;;;494219;240;28045;-73
2023/11/14 10:27:57;;;;;;;8.13;2.47;;;10.50;99.90;;;;;;494197;240;27974;-73
2023/11/14 10:29:56;;;;;;;8.60;2.73;;;10.50;99.90;;;;;;494166;240;27979;-72
2023/11/14 10:31:57;;;;;;;9.10;2.60;;;10.50;99.90;;;;;;494256;240;28511;-73